sensor_id;sensor_type;location;lat;lon;timestamp;P1;durP1;ratioP1;P2;durP2;ratioP2
69161;SDS011;56269;51.738;21.652;2022-09-27T00:00:05;102.50;;;20.73;;
69161;SDS011;56269;51.738;21.652;2022-09-27T00:02:52;70.97;;;18.13;;
69161;SDS011;56269;51.738;21.652;2022-09-27T00:05:18;85.23;;;19.57;;
69161;SDS011;56269;51.738;21.652;2022-09-27T00:07:44;78.20;;;19.50;;
69161;SDS011;56269;51.738;21.652;2022-09-27T00:10:10;80.75;;;19.30;;
69161;SDS011;56269;51.738;21.652;2022-09-27T00:12:37;63.83;;;18.77;;
69161;SDS011;56269;51.738;21.652;2022-09-27T00:15:04;71.43;;;19.25;;
69161;SDS011;56269;51.738;21.652;2022-09-27T00:17:31;103.27;;;19.90;;
69161;SDS011;56269;51.738;21.652;2022-09-27T00:19:58;93.00;;;19.75;;
69161;SDS011;56269;51.738;21.652;2022-09-27T00:22:24;74.70;;;17.73;;
69161;SDS011;56269;51.738;21.652;2022-09-27T00:24:51;59.03;;;16.40;;
69161;SDS011;56269;51.738;21.652;2022-09-27T00:27:18;96.50;;;18.60;;
69161;SDS011;56269;51.738;21.652;2022-09-27T00:29:45;78.77;;;18.13;;
69161;SDS011;56269;51.738;21.652;2022-09-27T00:32:11;83.05;;;18.23;;
69161;SDS011;56269;51.738;21.652;2022-09-27T00:34:39;66.50;;;17.10;;
69161;SDS011;56269;51.738;21.652;2022-09-27T00:37:07;102.68;;;19.17;;
69161;SDS011;56269;51.738;21.652;2022-09-27T00:39:33;89.97;;;15.10;;
69161;SDS011;56269;51.738;21.652;2022-09-27T00:42:00;66.70;;;15.93;;
69161;SDS011;56269;51.738;21.652;2022-09-27T00:49:50;96.00;;;16.73;;
69161;SDS011;56269;51.738;21.652;2022-09-27T00:52:33;85.63;;;16.93;;
69161;SDS011;56269;51.738;21.652;2022-09-27T00:55:18;58.03;;;14.30;;
69161;SDS011;56269;51.738;21.652;2022-09-27T00:57:52;74.35;;;15.55;;
69161;SDS011;56269;51.738;21.652;2022-09-27T01:00:18;111.40;;;16.58;;
69161;SDS011;56269;51.738;21.652;2022-09-27T01:02:47;81.47;;;16.30;;
69161;SDS011;56269;51.738;21.652;2022-09-27T01:05:15;79.90;;;15.83;;
69161;SDS011;56269;51.738;21.652;2022-09-27T01:07:44;86.50;;;14.82;;
69161;SDS011;56269;51.738;21.652;2022-09-27T01:10:11;121.03;;;18.02;;
69161;SDS011;56269;51.738;21.652;2022-09-27T01:12:44;112.97;;;14.85;;
69161;SDS011;56269;51.738;21.652;2022-09-27T01:15:51;86.00;;;13.85;;
69161;SDS011;56269;51.738;21.652;2022-09-27T01:32:11;56.60;;;12.83;;
69161;SDS011;56269;51.738;21.652;2022-09-27T01:34:46;67.57;;;14.13;;
69161;SDS011;56269;51.738;21.652;2022-09-27T01:40:09;78.10;;;13.57;;
69161;SDS011;56269;51.738;21.652;2022-09-27T01:42:47;78.28;;;13.27;;
69161;SDS011;56269;51.738;21.652;2022-09-27T01:48:21;61.83;;;12.63;;
69161;SDS011;56269;51.738;21.652;2022-09-27T01:50:51;50.42;;;11.40;;
69161;SDS011;56269;51.738;21.652;2022-09-27T01:53:34;28.50;;;10.85;;
69161;SDS011;56269;51.738;21.652;2022-09-27T01:56:09;51.50;;;11.23;;
69161;SDS011;56269;51.738;21.652;2022-09-27T01:58:45;75.83;;;11.77;;
69161;SDS011;56269;51.738;21.652;2022-09-27T02:01:25;65.00;;;12.50;;
69161;SDS011;56269;51.738;21.652;2022-09-27T02:03:54;60.58;;;11.43;;
69161;SDS011;56269;51.738;21.652;2022-09-27T02:06:25;49.70;;;11.23;;
69161;SDS011;56269;51.738;21.652;2022-09-27T02:09:05;54.03;;;12.27;;
69161;SDS011;56269;51.738;21.652;2022-09-27T02:11:34;48.80;;;10.63;;
69161;SDS011;56269;51.738;21.652;2022-09-27T02:14:12;43.53;;;9.85;;
69161;SDS011;56269;51.738;21.652;2022-09-27T02:16:52;61.70;;;11.35;;
69161;SDS011;56269;51.738;21.652;2022-09-27T02:24:52;44.67;;;9.70;;
69161;SDS011;56269;51.738;21.652;2022-09-27T02:27:24;55.35;;;11.07;;
69161;SDS011;56269;51.738;21.652;2022-09-27T02:29:58;50.17;;;11.00;;
69161;SDS011;56269;51.738;21.652;2022-09-27T02:32:30;75.18;;;12.48;;
69161;SDS011;56269;51.738;21.652;2022-09-27T02:34:58;96.40;;;12.93;;
69161;SDS011;56269;51.738;21.652;2022-09-27T02:37:27;119.33;;;12.97;;
69161;SDS011;56269;51.738;21.652;2022-09-27T02:39:53;93.50;;;12.65;;
69161;SDS011;56269;51.738;21.652;2022-09-27T02:42:19;102.40;;;12.75;;
69161;SDS011;56269;51.738;21.652;2022-09-27T02:44:45;123.07;;;12.93;;
69161;SDS011;56269;51.738;21.652;2022-09-27T02:57:48;103.45;;;13.38;;
69161;SDS011;56269;51.738;21.652;2022-09-27T03:00:21;81.83;;;12.10;;
69161;SDS011;56269;51.738;21.652;2022-09-27T03:03:14;124.45;;;13.15;;
69161;SDS011;56269;51.738;21.652;2022-09-27T03:06:03;117.30;;;12.98;;
69161;SDS011;56269;51.738;21.652;2022-09-27T03:08:32;141.63;;;13.07;;
69161;SDS011;56269;51.738;21.652;2022-09-27T03:10:58;124.90;;;13.15;;
69161;SDS011;56269;51.738;21.652;2022-09-27T03:13:24;62.37;;;10.77;;
69161;SDS011;56269;51.738;21.652;2022-09-27T03:15:51;85.38;;;11.82;;
69161;SDS011;56269;51.738;21.652;2022-09-27T03:18:17;98.00;;;12.80;;
69161;SDS011;56269;51.738;21.652;2022-09-27T03:20:43;52.08;;;11.57;;
69161;SDS011;56269;51.738;21.652;2022-09-27T03:23:09;73.07;;;11.60;;
69161;SDS011;56269;51.738;21.652;2022-09-27T03:25:35;68.60;;;11.52;;
69161;SDS011;56269;51.738;21.652;2022-09-27T03:28:01;66.40;;;11.55;;
69161;SDS011;56269;51.738;21.652;2022-09-27T03:30:28;147.18;;;13.25;;
69161;SDS011;56269;51.738;21.652;2022-09-27T03:32:54;73.57;;;11.37;;
69161;SDS011;56269;51.738;21.652;2022-09-27T03:35:20;97.75;;;12.55;;
69161;SDS011;56269;51.738;21.652;2022-09-27T03:37:46;56.50;;;10.90;;
69161;SDS011;56269;51.738;21.652;2022-09-27T03:40:12;101.70;;;12.57;;
69161;SDS011;56269;51.738;21.652;2022-09-27T03:42:38;79.00;;;12.17;;
69161;SDS011;56269;51.738;21.652;2022-09-27T03:45:04;134.48;;;13.93;;
69161;SDS011;56269;51.738;21.652;2022-09-27T03:47:31;123.30;;;16.05;;
69161;SDS011;56269;51.738;21.652;2022-09-27T03:49:56;88.30;;;12.77;;
69161;SDS011;56269;51.738;21.652;2022-09-27T03:52:23;101.03;;;13.63;;
69161;SDS011;56269;51.738;21.652;2022-09-27T03:54:48;142.82;;;13.65;;
69161;SDS011;56269;51.738;21.652;2022-09-27T03:57:14;159.00;;;14.88;;
69161;SDS011;56269;51.738;21.652;2022-09-27T03:59:40;138.73;;;15.98;;
69161;SDS011;56269;51.738;21.652;2022-09-27T04:02:06;151.70;;;15.50;;
69161;SDS011;56269;51.738;21.652;2022-09-27T04:04:32;191.80;;;17.65;;
69161;SDS011;56269;51.738;21.652;2022-09-27T04:06:59;154.80;;;15.65;;
69161;SDS011;56269;51.738;21.652;2022-09-27T04:09:24;93.38;;;12.50;;
69161;SDS011;56269;51.738;21.652;2022-09-27T04:11:50;156.93;;;15.90;;
69161;SDS011;56269;51.738;21.652;2022-09-27T04:14:16;128.63;;;14.95;;
69161;SDS011;56269;51.738;21.652;2022-09-27T04:16:42;92.03;;;12.93;;
69161;SDS011;56269;51.738;21.652;2022-09-27T04:19:08;159.63;;;13.97;;
69161;SDS011;56269;51.738;21.652;2022-09-27T04:21:35;115.50;;;13.48;;
69161;SDS011;56269;51.738;21.652;2022-09-27T04:24:01;146.75;;;14.52;;
69161;SDS011;56269;51.738;21.652;2022-09-27T04:26:27;149.13;;;14.95;;
69161;SDS011;56269;51.738;21.652;2022-09-27T04:28:53;113.93;;;14.80;;
69161;SDS011;56269;51.738;21.652;2022-09-27T04:31:19;88.80;;;13.73;;
69161;SDS011;56269;51.738;21.652;2022-09-27T04:33:45;109.45;;;16.25;;
69161;SDS011;56269;51.738;21.652;2022-09-27T04:36:16;135.13;;;15.05;;
69161;SDS011;56269;51.738;21.652;2022-09-27T04:38:59;168.77;;;16.70;;
69161;SDS011;56269;51.738;21.652;2022-09-27T04:41:27;139.43;;;15.17;;
69161;SDS011;56269;51.738;21.652;2022-09-27T04:43:54;146.23;;;15.07;;
69161;SDS011;56269;51.738;21.652;2022-09-27T04:46:21;132.10;;;15.10;;
69161;SDS011;56269;51.738;21.652;2022-09-27T04:48:49;179.68;;;17.05;;
69161;SDS011;56269;51.738;21.652;2022-09-27T04:51:16;140.38;;;15.50;;
69161;SDS011;56269;51.738;21.652;2022-09-27T04:53:42;74.33;;;12.87;;
69161;SDS011;56269;51.738;21.652;2022-09-27T04:56:09;85.47;;;12.68;;
69161;SDS011;56269;51.738;21.652;2022-09-27T04:58:37;90.45;;;13.23;;
69161;SDS011;56269;51.738;21.652;2022-09-27T05:01:03;36.67;;;9.27;;
69161;SDS011;56269;51.738;21.652;2022-09-27T05:03:30;81.78;;;12.73;;
69161;SDS011;56269;51.738;21.652;2022-09-27T05:05:56;86.97;;;14.20;;
69161;SDS011;56269;51.738;21.652;2022-09-27T05:08:23;86.70;;;12.80;;
69161;SDS011;56269;51.738;21.652;2022-09-27T05:10:50;141.20;;;14.73;;
69161;SDS011;56269;51.738;21.652;2022-09-27T05:13:16;109.35;;;13.50;;
69161;SDS011;56269;51.738;21.652;2022-09-27T05:15:42;172.20;;;19.20;;
69161;SDS011;56269;51.738;21.652;2022-09-27T05:18:09;113.40;;;14.40;;
69161;SDS011;56269;51.738;21.652;2022-09-27T05:20:35;137.32;;;15.48;;
69161;SDS011;56269;51.738;21.652;2022-09-27T05:23:02;85.50;;;12.02;;
69161;SDS011;56269;51.738;21.652;2022-09-27T05:25:29;66.03;;;11.85;;
69161;SDS011;56269;51.738;21.652;2022-09-27T05:27:56;78.80;;;12.33;;
69161;SDS011;56269;51.738;21.652;2022-09-27T05:30:23;101.28;;;12.32;;
69161;SDS011;56269;51.738;21.652;2022-09-27T05:32:50;87.72;;;12.30;;
69161;SDS011;56269;51.738;21.652;2022-09-27T05:35:17;99.68;;;14.07;;
69161;SDS011;56269;51.738;21.652;2022-09-27T05:37:53;52.40;;;10.82;;
69161;SDS011;56269;51.738;21.652;2022-09-27T05:40:21;93.97;;;11.67;;
69161;SDS011;56269;51.738;21.652;2022-09-27T05:42:51;35.17;;;9.07;;
69161;SDS011;56269;51.738;21.652;2022-09-27T05:45:18;61.20;;;10.98;;
69161;SDS011;56269;51.738;21.652;2022-09-27T05:47:52;115.57;;;13.63;;
69161;SDS011;56269;51.738;21.652;2022-09-27T05:50:19;48.42;;;9.63;;
69161;SDS011;56269;51.738;21.652;2022-09-27T05:52:45;35.83;;;9.03;;
69161;SDS011;56269;51.738;21.652;2022-09-27T05:55:11;110.78;;;14.40;;
69161;SDS011;56269;51.738;21.652;2022-09-27T05:57:37;45.05;;;10.77;;
69161;SDS011;56269;51.738;21.652;2022-09-27T06:00:03;53.17;;;12.80;;
69161;SDS011;56269;51.738;21.652;2022-09-27T06:02:30;45.60;;;9.98;;
69161;SDS011;56269;51.738;21.652;2022-09-27T06:04:56;31.85;;;9.38;;
69161;SDS011;56269;51.738;21.652;2022-09-27T06:07:22;49.58;;;12.35;;
69161;SDS011;56269;51.738;21.652;2022-09-27T06:09:48;44.92;;;11.95;;
69161;SDS011;56269;51.738;21.652;2022-09-27T06:12:14;73.17;;;13.80;;
69161;SDS011;56269;51.738;21.652;2022-09-27T06:14:40;29.25;;;9.32;;
69161;SDS011;56269;51.738;21.652;2022-09-27T06:17:07;67.85;;;13.70;;
69161;SDS011;56269;51.738;21.652;2022-09-27T06:19:33;27.73;;;10.00;;
69161;SDS011;56269;51.738;21.652;2022-09-27T06:22:00;36.13;;;11.47;;
69161;SDS011;56269;51.738;21.652;2022-09-27T06:24:26;47.70;;;12.32;;
69161;SDS011;56269;51.738;21.652;2022-09-27T06:26:52;89.05;;;17.30;;
69161;SDS011;56269;51.738;21.652;2022-09-27T06:29:18;47.25;;;15.30;;
69161;SDS011;56269;51.738;21.652;2022-09-27T06:31:44;54.77;;;14.67;;
69161;SDS011;56269;51.738;21.652;2022-09-27T06:34:10;74.25;;;16.38;;
69161;SDS011;56269;51.738;21.652;2022-09-27T06:36:36;46.53;;;14.60;;
69161;SDS011;56269;51.738;21.652;2022-09-27T06:39:02;87.90;;;18.38;;
69161;SDS011;56269;51.738;21.652;2022-09-27T06:41:28;36.07;;;13.40;;
69161;SDS011;56269;51.738;21.652;2022-09-27T06:43:54;54.63;;;16.67;;
69161;SDS011;56269;51.738;21.652;2022-09-27T06:46:20;39.50;;;15.20;;
69161;SDS011;56269;51.738;21.652;2022-09-27T06:48:46;57.13;;;17.23;;
69161;SDS011;56269;51.738;21.652;2022-09-27T06:51:13;47.33;;;17.00;;
69161;SDS011;56269;51.738;21.652;2022-09-27T06:53:39;39.75;;;15.80;;
69161;SDS011;56269;51.738;21.652;2022-09-27T06:56:05;51.78;;;18.67;;
69161;SDS011;56269;51.738;21.652;2022-09-27T06:58:31;41.80;;;17.38;;
69161;SDS011;56269;51.738;21.652;2022-09-27T07:01:15;48.93;;;18.33;;
69161;SDS011;56269;51.738;21.652;2022-09-27T07:03:42;37.85;;;15.57;;
69161;SDS011;56269;51.738;21.652;2022-09-27T07:06:16;34.65;;;15.60;;
69161;SDS011;56269;51.738;21.652;2022-09-27T07:08:48;37.45;;;15.32;;
69161;SDS011;56269;51.738;21.652;2022-09-27T07:11:16;38.97;;;17.52;;
69161;SDS011;56269;51.738;21.652;2022-09-27T07:13:42;43.50;;;16.17;;
69161;SDS011;56269;51.738;21.652;2022-09-27T07:16:15;29.55;;;12.82;;
69161;SDS011;56269;51.738;21.652;2022-09-27T07:18:41;37.65;;;15.90;;
69161;SDS011;56269;51.738;21.652;2022-09-27T07:21:07;33.92;;;14.38;;
69161;SDS011;56269;51.738;21.652;2022-09-27T07:23:34;27.35;;;12.45;;
69161;SDS011;56269;51.738;21.652;2022-09-27T07:26:01;30.77;;;13.50;;
69161;SDS011;56269;51.738;21.652;2022-09-27T07:28:29;35.78;;;15.52;;
69161;SDS011;56269;51.738;21.652;2022-09-27T07:30:56;33.88;;;14.75;;
69161;SDS011;56269;51.738;21.652;2022-09-27T07:33:22;31.00;;;13.77;;
69161;SDS011;56269;51.738;21.652;2022-09-27T07:35:49;29.55;;;12.30;;
69161;SDS011;56269;51.738;21.652;2022-09-27T07:38:15;30.60;;;12.67;;
69161;SDS011;56269;51.738;21.652;2022-09-27T07:40:41;28.38;;;12.20;;
69161;SDS011;56269;51.738;21.652;2022-09-27T07:43:08;28.20;;;12.82;;
69161;SDS011;56269;51.738;21.652;2022-09-27T07:45:34;28.30;;;11.77;;
69161;SDS011;56269;51.738;21.652;2022-09-27T07:48:04;28.13;;;10.88;;
69161;SDS011;56269;51.738;21.652;2022-09-27T07:50:37;27.80;;;13.13;;
69161;SDS011;56269;51.738;21.652;2022-09-27T07:53:03;27.77;;;12.73;;
69161;SDS011;56269;51.738;21.652;2022-09-27T07:55:30;23.90;;;11.25;;
69161;SDS011;56269;51.738;21.652;2022-09-27T07:58:03;31.05;;;13.93;;
69161;SDS011;56269;51.738;21.652;2022-09-27T08:00:31;29.00;;;12.27;;
69161;SDS011;56269;51.738;21.652;2022-09-27T08:02:57;27.97;;;11.23;;
69161;SDS011;56269;51.738;21.652;2022-09-27T08:05:23;33.67;;;15.05;;
69161;SDS011;56269;51.738;21.652;2022-09-27T08:07:53;34.83;;;14.30;;
69161;SDS011;56269;51.738;21.652;2022-09-27T08:10:21;33.90;;;13.90;;
69161;SDS011;56269;51.738;21.652;2022-09-27T08:12:49;37.92;;;14.68;;
69161;SDS011;56269;51.738;21.652;2022-09-27T08:15:15;25.83;;;10.73;;
69161;SDS011;56269;51.738;21.652;2022-09-27T08:17:41;39.22;;;15.93;;
69161;SDS011;56269;51.738;21.652;2022-09-27T08:20:07;40.38;;;16.60;;
69161;SDS011;56269;51.738;21.652;2022-09-27T08:22:38;43.28;;;18.98;;
69161;SDS011;56269;51.738;21.652;2022-09-27T08:25:05;39.43;;;17.93;;
69161;SDS011;56269;51.738;21.652;2022-09-27T08:27:31;40.08;;;17.40;;
69161;SDS011;56269;51.738;21.652;2022-09-27T08:29:57;38.55;;;16.48;;
69161;SDS011;56269;51.738;21.652;2022-09-27T08:32:25;34.15;;;15.38;;
69161;SDS011;56269;51.738;21.652;2022-09-27T08:34:53;38.22;;;16.95;;
69161;SDS011;56269;51.738;21.652;2022-09-27T08:37:18;38.27;;;16.60;;
69161;SDS011;56269;51.738;21.652;2022-09-27T08:39:45;38.20;;;17.50;;
69161;SDS011;56269;51.738;21.652;2022-09-27T08:44:52;36.30;;;16.83;;
69161;SDS011;56269;51.738;21.652;2022-09-27T08:47:24;32.07;;;15.67;;
69161;SDS011;56269;51.738;21.652;2022-09-27T08:49:58;33.03;;;17.30;;
69161;SDS011;56269;51.738;21.652;2022-09-27T08:52:41;32.60;;;16.02;;
69161;SDS011;56269;51.738;21.652;2022-09-27T08:55:56;31.92;;;14.23;;
69161;SDS011;56269;51.738;21.652;2022-09-27T08:58:03;27.52;;;13.27;;
69161;SDS011;56269;51.738;21.652;2022-09-27T09:00:38;28.70;;;15.10;;
69161;SDS011;56269;51.738;21.652;2022-09-27T09:03:04;29.48;;;15.68;;
69161;SDS011;56269;51.738;21.652;2022-09-27T09:05:31;28.27;;;14.70;;
69161;SDS011;56269;51.738;21.652;2022-09-27T09:11:12;30.23;;;14.85;;
69161;SDS011;56269;51.738;21.652;2022-09-27T09:14:30;26.83;;;14.83;;
69161;SDS011;56269;51.738;21.652;2022-09-27T09:25:22;26.13;;;15.00;;
69161;SDS011;56269;51.738;21.652;2022-09-27T09:27:53;26.07;;;15.67;;
69161;SDS011;56269;51.738;21.652;2022-09-27T09:33:15;24.90;;;14.13;;
69161;SDS011;56269;51.738;21.652;2022-09-27T09:35:49;23.42;;;14.48;;
69161;SDS011;56269;51.738;21.652;2022-09-27T09:38:44;24.23;;;14.27;;
69161;SDS011;56269;51.738;21.652;2022-09-27T09:41:17;21.30;;;13.03;;
69161;SDS011;56269;51.738;21.652;2022-09-27T09:43:56;22.20;;;14.30;;
69161;SDS011;56269;51.738;21.652;2022-09-27T09:46:43;20.50;;;12.35;;
69161;SDS011;56269;51.738;21.652;2022-09-27T09:51:59;17.58;;;10.77;;
69161;SDS011;56269;51.738;21.652;2022-09-27T09:54:31;19.97;;;12.80;;
69161;SDS011;56269;51.738;21.652;2022-09-27T10:04:51;19.98;;;12.60;;
69161;SDS011;56269;51.738;21.652;2022-09-27T10:07:19;20.13;;;13.40;;
69161;SDS011;56269;51.738;21.652;2022-09-27T10:09:49;18.73;;;11.65;;
69161;SDS011;56269;51.738;21.652;2022-09-27T10:12:16;19.55;;;12.20;;
69161;SDS011;56269;51.738;21.652;2022-09-27T10:14:44;18.30;;;11.40;;
69161;SDS011;56269;51.738;21.652;2022-09-27T10:17:14;25.85;;;11.73;;
69161;SDS011;56269;51.738;21.652;2022-09-27T10:19:43;17.23;;;10.80;;
69161;SDS011;56269;51.738;21.652;2022-09-27T10:25:04;18.75;;;11.60;;
69161;SDS011;56269;51.738;21.652;2022-09-27T10:27:39;16.88;;;10.13;;
69161;SDS011;56269;51.738;21.652;2022-09-27T10:30:34;18.88;;;11.45;;
69161;SDS011;56269;51.738;21.652;2022-09-27T10:33:03;16.27;;;10.47;;
69161;SDS011;56269;51.738;21.652;2022-09-27T10:35:43;18.13;;;10.85;;
69161;SDS011;56269;51.738;21.652;2022-09-27T10:38:19;16.83;;;10.45;;
69161;SDS011;56269;51.738;21.652;2022-09-27T10:40:49;21.27;;;11.30;;
69161;SDS011;56269;51.738;21.652;2022-09-27T10:43:33;19.52;;;12.00;;
69161;SDS011;56269;51.738;21.652;2022-09-27T10:48:38;18.13;;;11.15;;
69161;SDS011;56269;51.738;21.652;2022-09-27T10:51:07;17.77;;;10.32;;
69161;SDS011;56269;51.738;21.652;2022-09-27T10:53:48;18.90;;;9.98;;
69161;SDS011;56269;51.738;21.652;2022-09-27T10:56:21;18.45;;;10.05;;
69161;SDS011;56269;51.738;21.652;2022-09-27T10:58:49;17.60;;;10.90;;
69161;SDS011;56269;51.738;21.652;2022-09-27T11:01:15;15.93;;;9.68;;
69161;SDS011;56269;51.738;21.652;2022-09-27T11:03:49;14.95;;;9.30;;
69161;SDS011;56269;51.738;21.652;2022-09-27T11:08:48;13.80;;;8.43;;
69161;SDS011;56269;51.738;21.652;2022-09-27T11:13:58;16.25;;;8.95;;
69161;SDS011;56269;51.738;21.652;2022-09-27T11:19:35;15.82;;;8.93;;
69161;SDS011;56269;51.738;21.652;2022-09-27T11:22:31;15.70;;;9.30;;
69161;SDS011;56269;51.738;21.652;2022-09-27T11:25:23;14.60;;;8.53;;
69161;SDS011;56269;51.738;21.652;2022-09-27T11:31:07;14.45;;;8.43;;
69161;SDS011;56269;51.738;21.652;2022-09-27T11:33:50;14.73;;;8.63;;
69161;SDS011;56269;51.738;21.652;2022-09-27T11:36:31;15.82;;;9.70;;
69161;SDS011;56269;51.738;21.652;2022-09-27T11:39:14;15.67;;;9.17;;
69161;SDS011;56269;51.738;21.652;2022-09-27T11:44:51;16.23;;;9.93;;
69161;SDS011;56269;51.738;21.652;2022-09-27T11:47:35;14.10;;;7.63;;
69161;SDS011;56269;51.738;21.652;2022-09-27T12:01:40;15.10;;;8.75;;
69161;SDS011;56269;51.738;21.652;2022-09-27T12:07:44;16.90;;;9.80;;
69161;SDS011;56269;51.738;21.652;2022-09-27T12:10:16;15.00;;;9.13;;
69161;SDS011;56269;51.738;21.652;2022-09-27T12:12:45;15.10;;;8.57;;
69161;SDS011;56269;51.738;21.652;2022-09-27T12:15:29;15.35;;;9.55;;
69161;SDS011;56269;51.738;21.652;2022-09-27T12:18:11;16.05;;;10.13;;
69161;SDS011;56269;51.738;21.652;2022-09-27T12:20:49;15.80;;;9.57;;
69161;SDS011;56269;51.738;21.652;2022-09-27T12:23:21;17.38;;;10.20;;
69161;SDS011;56269;51.738;21.652;2022-09-27T12:25:55;17.48;;;9.88;;
69161;SDS011;56269;51.738;21.652;2022-09-27T12:28:36;17.40;;;10.63;;
69161;SDS011;56269;51.738;21.652;2022-09-27T12:36:49;15.07;;;9.43;;
69161;SDS011;56269;51.738;21.652;2022-09-27T12:42:13;17.08;;;10.80;;
69161;SDS011;56269;51.738;21.652;2022-09-27T12:44:44;16.83;;;10.70;;
69161;SDS011;56269;51.738;21.652;2022-09-27T12:47:18;17.43;;;10.97;;
69161;SDS011;56269;51.738;21.652;2022-09-27T12:52:38;19.45;;;10.50;;
69161;SDS011;56269;51.738;21.652;2022-09-27T13:14:01;19.33;;;11.80;;
69161;SDS011;56269;51.738;21.652;2022-09-27T13:16:29;18.48;;;10.13;;
69161;SDS011;56269;51.738;21.652;2022-09-27T13:18:56;17.83;;;10.98;;
69161;SDS011;56269;51.738;21.652;2022-09-27T13:27:12;16.75;;;9.80;;
69161;SDS011;56269;51.738;21.652;2022-09-27T13:29:50;18.75;;;10.90;;
69161;SDS011;56269;51.738;21.652;2022-09-27T13:32:18;16.85;;;8.65;;
69161;SDS011;56269;51.738;21.652;2022-09-27T13:34:46;17.30;;;10.57;;
69161;SDS011;56269;51.738;21.652;2022-09-27T13:39:47;15.30;;;8.82;;
69161;SDS011;56269;51.738;21.652;2022-09-27T13:42:16;15.70;;;9.77;;
69161;SDS011;56269;51.738;21.652;2022-09-27T13:47:54;16.95;;;10.55;;
69161;SDS011;56269;51.738;21.652;2022-09-27T13:50:25;16.10;;;9.50;;
69161;SDS011;56269;51.738;21.652;2022-09-27T13:53:05;17.13;;;10.30;;
69161;SDS011;56269;51.738;21.652;2022-09-27T13:55:49;14.55;;;8.88;;
69161;SDS011;56269;51.738;21.652;2022-09-27T14:01:02;14.27;;;8.68;;
69161;SDS011;56269;51.738;21.652;2022-09-27T14:03:36;14.50;;;8.90;;
69161;SDS011;56269;51.738;21.652;2022-09-27T14:06:04;16.27;;;8.70;;
69161;SDS011;56269;51.738;21.652;2022-09-27T14:11:09;16.55;;;10.15;;
69161;SDS011;56269;51.738;21.652;2022-09-27T14:13:39;18.75;;;9.75;;
69161;SDS011;56269;51.738;21.652;2022-09-27T14:16:13;14.97;;;8.43;;
69161;SDS011;56269;51.738;21.652;2022-09-27T14:18:48;15.85;;;9.13;;
69161;SDS011;56269;51.738;21.652;2022-09-27T14:21:26;13.68;;;8.00;;
69161;SDS011;56269;51.738;21.652;2022-09-27T14:26:48;15.88;;;9.25;;
69161;SDS011;56269;51.738;21.652;2022-09-27T14:29:38;14.50;;;8.90;;
69161;SDS011;56269;51.738;21.652;2022-09-27T14:32:25;16.75;;;9.57;;
69161;SDS011;56269;51.738;21.652;2022-09-27T14:35:05;12.65;;;7.22;;
69161;SDS011;56269;51.738;21.652;2022-09-27T14:37:59;14.27;;;7.95;;
69161;SDS011;56269;51.738;21.652;2022-09-27T14:40:27;13.70;;;7.90;;
69161;SDS011;56269;51.738;21.652;2022-09-27T14:42:54;15.40;;;9.60;;
69161;SDS011;56269;51.738;21.652;2022-09-27T14:45:26;17.58;;;10.43;;
69161;SDS011;56269;51.738;21.652;2022-09-27T14:48:00;14.75;;;9.30;;
69161;SDS011;56269;51.738;21.652;2022-09-27T14:50:28;16.42;;;9.30;;
69161;SDS011;56269;51.738;21.652;2022-09-27T14:52:55;17.10;;;10.07;;
69161;SDS011;56269;51.738;21.652;2022-09-27T14:55:25;17.03;;;9.83;;
69161;SDS011;56269;51.738;21.652;2022-09-27T14:57:55;15.55;;;9.38;;
69161;SDS011;56269;51.738;21.652;2022-09-27T15:00:24;17.00;;;10.10;;
69161;SDS011;56269;51.738;21.652;2022-09-27T15:03:00;18.33;;;9.60;;
69161;SDS011;56269;51.738;21.652;2022-09-27T15:05:29;21.42;;;10.55;;
69161;SDS011;56269;51.738;21.652;2022-09-27T15:07:57;17.77;;;10.73;;
69161;SDS011;56269;51.738;21.652;2022-09-27T15:10:29;18.77;;;10.73;;
69161;SDS011;56269;51.738;21.652;2022-09-27T15:13:00;19.95;;;11.20;;
69161;SDS011;56269;51.738;21.652;2022-09-27T15:15:31;19.27;;;10.65;;
69161;SDS011;56269;51.738;21.652;2022-09-27T15:17:59;16.80;;;9.93;;
69161;SDS011;56269;51.738;21.652;2022-09-27T15:22:57;17.73;;;9.93;;
69161;SDS011;56269;51.738;21.652;2022-09-27T15:30:36;18.17;;;10.00;;
69161;SDS011;56269;51.738;21.652;2022-09-27T15:33:06;18.10;;;10.40;;
69161;SDS011;56269;51.738;21.652;2022-09-27T15:35:47;19.20;;;11.55;;
69161;SDS011;56269;51.738;21.652;2022-09-27T15:41:31;23.15;;;12.45;;
69161;SDS011;56269;51.738;21.652;2022-09-27T15:44:45;16.48;;;8.95;;
69161;SDS011;56269;51.738;21.652;2022-09-27T15:52:44;19.10;;;10.27;;
69161;SDS011;56269;51.738;21.652;2022-09-27T15:55:12;16.85;;;9.48;;
69161;SDS011;56269;51.738;21.652;2022-09-27T15:57:39;20.60;;;11.52;;
69161;SDS011;56269;51.738;21.652;2022-09-27T16:00:09;22.17;;;11.00;;
69161;SDS011;56269;51.738;21.652;2022-09-27T16:02:38;49.88;;;11.25;;
69161;SDS011;56269;51.738;21.652;2022-09-27T16:05:05;23.00;;;10.57;;
69161;SDS011;56269;51.738;21.652;2022-09-27T16:07:32;20.70;;;11.23;;
69161;SDS011;56269;51.738;21.652;2022-09-27T16:09:58;20.85;;;11.35;;
69161;SDS011;56269;51.738;21.652;2022-09-27T16:16:04;22.15;;;11.68;;
69161;SDS011;56269;51.738;21.652;2022-09-27T16:18:52;20.88;;;12.05;;
69161;SDS011;56269;51.738;21.652;2022-09-27T16:21:37;26.48;;;13.55;;
69161;SDS011;56269;51.738;21.652;2022-09-27T16:24:04;32.50;;;16.30;;
69161;SDS011;56269;51.738;21.652;2022-09-27T16:26:30;33.60;;;16.67;;
69161;SDS011;56269;51.738;21.652;2022-09-27T16:28:58;29.77;;;15.15;;
69161;SDS011;56269;51.738;21.652;2022-09-27T16:31:25;34.63;;;16.83;;
69161;SDS011;56269;51.738;21.652;2022-09-27T16:33:51;33.47;;;17.48;;
69161;SDS011;56269;51.738;21.652;2022-09-27T16:36:17;32.73;;;17.27;;
69161;SDS011;56269;51.738;21.652;2022-09-27T16:38:49;34.87;;;18.80;;
69161;SDS011;56269;51.738;21.652;2022-09-27T16:41:16;31.20;;;17.67;;
69161;SDS011;56269;51.738;21.652;2022-09-27T16:43:44;30.30;;;17.45;;
69161;SDS011;56269;51.738;21.652;2022-09-27T16:46:11;31.60;;;16.77;;
69161;SDS011;56269;51.738;21.652;2022-09-27T16:48:40;27.25;;;16.08;;
69161;SDS011;56269;51.738;21.652;2022-09-27T16:51:15;34.13;;;17.50;;
69161;SDS011;56269;51.738;21.652;2022-09-27T16:54:02;33.95;;;18.15;;
69161;SDS011;56269;51.738;21.652;2022-09-27T16:56:30;31.52;;;18.52;;
69161;SDS011;56269;51.738;21.652;2022-09-27T16:58:59;36.20;;;19.38;;
69161;SDS011;56269;51.738;21.652;2022-09-27T17:01:29;39.60;;;20.75;;
69161;SDS011;56269;51.738;21.652;2022-09-27T17:03:55;37.60;;;20.87;;
69161;SDS011;56269;51.738;21.652;2022-09-27T17:06:22;41.45;;;21.35;;
69161;SDS011;56269;51.738;21.652;2022-09-27T17:08:50;41.20;;;22.10;;
69161;SDS011;56269;51.738;21.652;2022-09-27T17:11:17;33.47;;;19.35;;
69161;SDS011;56269;51.738;21.652;2022-09-27T17:13:46;45.15;;;24.05;;
69161;SDS011;56269;51.738;21.652;2022-09-27T17:16:14;44.13;;;23.43;;
69161;SDS011;56269;51.738;21.652;2022-09-27T17:18:41;55.35;;;25.85;;
69161;SDS011;56269;51.738;21.652;2022-09-27T17:21:07;37.97;;;19.45;;